Danville, CA

1:14 AM PST on December 20, 2014 (GMT -0800)
Buchanan | Change Station
CLOSE
Current Station
Airport
Location: Concord,
Elevation: 23 ft
Nearby Weather Stations

Elev 23 ft 37.99 °N, 122.06 °W | Updated 21 minutes ago

Overcast
Overcast
54 °F
Feels Like 54 °F
N
0
Wind Variable Wind from North

Today
High -- | Low -- °F
--% Chance of Precip.
Yesterday
High -- | Low -- °F
Precip. -- in
7:19 AM 4:51 PM
Waning Crescent, 4% visible
Pressure 30.09 in
Visibility 2.5 miles
Clouds Overcast 300 ft
Dew Point 51 °F
Humidity 90%
Rainfall 0.00 in
Snow Depth Not available.
UV 0 out of 12
Pollen 2.00 out of 12
Air Quality Not available.
Flu Activity Not available.
METAR KCCR 200853Z 00000KT 2 1/2SM BR OVC003 12/11 A3013 RMK AO2 SLP190 T01220106 58015

More Conditions Fewer Conditions

Pressure 30.09 in
Visibility 2.5 miles
Clouds Overcast 300 ft
Dew Point 51 °F
Humidity 90%
Rainfall 0.00 in
Snow Depth Not available.
UV 0 out of 12
Pollen 2.00 out of 12
Air Quality Not available.
Flu Activity Not available.
METAR KCCR 200853Z 00000KT 2 1/2SM BR OVC003 12/11 A3013 RMK AO2 SLP190 T01220106 58015

More Conditions Fewer Conditions

10-Day Weather Forecast

Almanac

Astronomy

Dec. 20, 2014 Rise Set
Actual Time
Civil Twilight
Nautical Twilight
Astronomical Twilight
Moon
Length of Visible Light
Length of Day
Tomorrow will be .
, % of the Moon is Illuminated

Today's Extremes

State Highs State Lows

Community

WunderPhotos

Upload Photos

1,779,146 photos uploaded!

WunderBlogs® & News

Nearby

Air Quality

  Air Quality AQ Index Pollutant
Not available.

Snow Depth

Station Depth Elevation

Earthquake Activity

City Distance Mag. Time & Date
Minimum magnitude displayed is 2.5.

Coastal Water Temperatures

Place Temperature

Nearby Weather Stations